createdAt,value
2022-08-04T00:00:04.423Z,21.70
2022-08-04T00:03:21.000Z,21.60
2022-08-04T00:06:05.536Z,21.60
2022-08-04T00:08:48.323Z,21.56
2022-08-04T00:11:30.786Z,21.50
2022-08-04T00:14:11.658Z,21.50
2022-08-04T00:16:49.696Z,21.42
2022-08-04T00:19:31.560Z,21.40
2022-08-04T00:22:09.974Z,21.40
2022-08-04T00:24:44.767Z,21.30
2022-08-04T00:27:18.900Z,21.30
2022-08-04T00:29:53.030Z,21.30
2022-08-04T00:32:34.355Z,21.20
2022-08-04T00:35:10.086Z,21.20
2022-08-04T00:37:45.381Z,21.20
2022-08-04T00:40:32.831Z,21.14
2022-08-04T00:43:19.287Z,21.10
2022-08-04T00:46:36.465Z,21.08
2022-08-04T00:49:48.490Z,21.00
2022-08-04T00:52:36.701Z,21.00
2022-08-04T00:55:33.149Z,20.90
2022-08-04T00:58:29.884Z,20.84
2022-08-04T01:01:07.224Z,20.80
2022-08-04T01:03:58.385Z,20.72
2022-08-04T01:06:50.888Z,20.70
2022-08-04T01:09:52.694Z,20.70
2022-08-04T01:12:53.541Z,20.60
2022-08-04T01:15:59.411Z,20.60
2022-08-04T01:18:48.201Z,20.56
2022-08-04T01:21:39.787Z,20.50
2022-08-04T01:24:36.208Z,20.50
2022-08-04T01:27:20.021Z,20.44
2022-08-04T01:30:00.333Z,20.40
2022-08-04T01:32:40.461Z,20.40
2022-08-04T01:35:22.053Z,20.40
2022-08-04T01:38:26.101Z,20.30
2022-08-04T01:41:04.990Z,20.30
2022-08-04T01:43:44.334Z,20.30
2022-08-04T01:46:19.268Z,20.20
2022-08-04T01:48:57.250Z,20.20
2022-08-04T01:51:30.914Z,20.18
2022-08-04T01:54:03.742Z,20.10
2022-08-04T01:56:36.895Z,20.10
2022-08-04T01:59:10.509Z,20.10
2022-08-04T02:01:43.739Z,20.10
2022-08-04T02:04:23.404Z,20.10
2022-08-04T02:07:09.123Z,20.10
2022-08-04T02:10:03.131Z,20.10
2022-08-04T02:12:53.326Z,20.00
2022-08-04T02:15:32.137Z,20.00
2022-08-04T02:18:17.623Z,19.96
2022-08-04T02:20:57.109Z,19.90
2022-08-04T02:23:39.125Z,19.90
2022-08-04T02:26:22.657Z,19.80
2022-08-04T02:29:17.024Z,19.80
2022-08-04T02:31:54.663Z,19.80
2022-08-04T02:34:33.921Z,19.70
2022-08-04T02:37:08.642Z,19.70
2022-08-04T02:39:48.294Z,19.70
2022-08-04T02:42:22.799Z,19.68
2022-08-04T02:45:00.338Z,19.60
2022-08-04T02:48:25.178Z,19.60
2022-08-04T02:50:30.612Z,19.60
2022-08-04T02:53:09.859Z,19.52
2022-08-04T02:55:51.013Z,19.50
2022-08-04T02:58:30.497Z,19.50
2022-08-04T03:01:04.417Z,19.50
2022-08-04T03:03:48.796Z,19.40
2022-08-04T03:07:23.190Z,19.40
2022-08-04T03:10:48.939Z,19.30
2022-08-04T03:13:51.382Z,19.20
2022-08-04T03:17:11.574Z,19.18
2022-08-04T03:20:44.680Z,19.08
2022-08-04T03:23:57.288Z,19.00
2022-08-04T03:30:14.615Z,18.90
2022-08-04T03:33:19.684Z,18.90
2022-08-04T03:36:34.857Z,18.84
2022-08-04T03:39:44.982Z,18.82
2022-08-04T03:42:56.842Z,18.80
2022-08-04T03:46:14.754Z,18.90
2022-08-04T03:49:31.352Z,18.90
2022-08-04T03:52:32.232Z,18.90
2022-08-04T03:56:00.787Z,18.90
2022-08-04T03:59:07.774Z,18.90
2022-08-04T04:02:11.830Z,18.90
2022-08-04T04:06:00.057Z,19.00
2022-08-04T04:09:22.011Z,19.00
2022-08-04T04:12:14.147Z,19.04
2022-08-04T04:15:21.114Z,19.10
2022-08-04T04:19:01.047Z,19.20
2022-08-04T04:21:50.892Z,19.20
2022-08-04T04:24:56.517Z,19.30
2022-08-04T04:27:42.891Z,19.40
2022-08-04T04:30:20.901Z,19.50
2022-08-04T04:33:32.942Z,19.60
2022-08-04T04:36:16.788Z,19.70
2022-08-04T04:39:09.497Z,19.76
2022-08-04T04:42:08.787Z,19.86
2022-08-04T04:45:04.812Z,19.96
2022-08-04T04:48:10.054Z,20.10
2022-08-04T04:51:00.039Z,20.46
2022-08-04T04:53:43.931Z,20.70
2022-08-04T04:56:28.660Z,20.76
2022-08-04T04:59:02.925Z,20.80
2022-08-04T05:02:17.826Z,20.90
2022-08-04T05:05:27.578Z,21.00
2022-08-04T05:08:44.367Z,21.10
2022-08-04T05:11:55.282Z,21.20
2022-08-04T05:14:41.133Z,21.30
2022-08-04T05:17:23.658Z,21.40
2022-08-04T05:20:07.809Z,21.42
2022-08-04T05:22:47.808Z,21.50
2022-08-04T05:25:25.224Z,21.60
2022-08-04T05:28:05.072Z,21.70
2022-08-04T05:30:48.910Z,21.78
2022-08-04T05:33:29.248Z,21.80
2022-08-04T05:36:20.333Z,21.90
2022-08-04T05:39:00.248Z,22.06
2022-08-04T05:41:45.778Z,22.20
2022-08-04T05:44:23.313Z,22.40
2022-08-04T05:46:59.398Z,22.50
2022-08-04T05:49:36.650Z,22.70
2022-08-04T05:52:11.366Z,22.80
2022-08-04T05:54:45.963Z,22.92
2022-08-04T05:57:19.775Z,23.04
2022-08-04T05:59:57.082Z,23.10
2022-08-04T06:02:31.642Z,23.20
2022-08-04T06:05:07.886Z,23.30
2022-08-04T06:08:10.943Z,23.36
2022-08-04T06:10:35.940Z,23.48
2022-08-04T06:13:46.723Z,23.50
2022-08-04T06:16:28.517Z,23.50
2022-08-04T06:20:03.257Z,23.50
2022-08-04T06:22:03.753Z,23.50
2022-08-04T06:24:40.517Z,23.50
2022-08-04T06:27:13.651Z,23.60
2022-08-04T06:29:51.213Z,23.70
2022-08-04T06:32:41.661Z,23.80
2022-08-04T06:35:16.731Z,23.90
2022-08-04T06:37:52.375Z,24.00
2022-08-04T06:40:31.006Z,24.10
2022-08-04T06:43:08.058Z,24.30
2022-08-04T06:45:43.962Z,24.40
2022-08-04T06:48:19.801Z,24.50
2022-08-04T06:51:32.710Z,24.60
2022-08-04T06:53:48.422Z,24.70
2022-08-04T06:56:24.246Z,24.80
2022-08-04T06:59:00.622Z,24.80
2022-08-04T07:01:34.131Z,24.90
2022-08-04T07:04:08.581Z,25.00
2022-08-04T07:06:41.727Z,25.20
2022-08-04T07:09:14.846Z,25.36
2022-08-04T07:11:48.626Z,25.50
2022-08-04T07:14:22.934Z,25.70
2022-08-04T07:16:57.492Z,25.80
2022-08-04T07:19:30.582Z,26.00
2022-08-04T07:22:17.586Z,26.10
2022-08-04T07:25:01.217Z,26.30
2022-08-04T07:27:48.546Z,26.40
2022-08-04T07:30:24.897Z,26.54
2022-08-04T07:32:58.824Z,26.60
2022-08-04T07:36:05.854Z,26.70
2022-08-04T07:38:27.512Z,26.82
2022-08-04T07:41:01.477Z,27.00
2022-08-04T07:43:34.970Z,27.10
2022-08-04T07:46:08.159Z,27.26
2022-08-04T07:48:41.914Z,27.40
2022-08-04T07:51:14.859Z,27.48
2022-08-04T07:53:54.493Z,27.60
2022-08-04T07:56:29.885Z,27.70
2022-08-04T07:59:03.693Z,27.80
2022-08-04T08:01:38.063Z,27.96
2022-08-04T08:04:12.584Z,28.16
2022-08-04T08:06:46.037Z,28.24
2022-08-04T08:09:22.189Z,28.40
2022-08-04T08:12:36.814Z,28.58
2022-08-04T08:14:51.205Z,28.70
2022-08-04T08:17:24.186Z,28.82
2022-08-04T08:19:57.493Z,28.90
2022-08-04T08:22:30.988Z,29.00
2022-08-04T08:25:04.074Z,29.10
2022-08-04T08:27:38.335Z,29.20
2022-08-04T08:30:14.569Z,29.30
2022-08-04T08:32:47.432Z,29.30
2022-08-04T08:35:21.433Z,29.36
2022-08-04T08:37:59.673Z,29.50
2022-08-04T08:40:45.462Z,29.70
2022-08-04T08:44:04.463Z,29.90
2022-08-04T08:46:53.088Z,30.10
2022-08-04T08:50:04.652Z,30.30
2022-08-04T08:52:56.207Z,30.36
2022-08-04T08:55:47.617Z,30.50
2022-08-04T08:58:44.766Z,30.90
2022-08-04T09:01:47.365Z,31.28
2022-08-04T09:04:53.530Z,31.60
2022-08-04T09:08:12.969Z,31.80
2022-08-04T09:10:49.145Z,32.10
2022-08-04T09:13:32.247Z,32.26
2022-08-04T09:16:17.934Z,32.50
2022-08-04T09:19:07.818Z,32.68
2022-08-04T09:21:49.504Z,32.90
2022-08-04T09:24:36.338Z,33.18
2022-08-04T09:27:16.992Z,33.30
2022-08-04T09:29:59.138Z,33.40
2022-08-04T09:32:43.388Z,33.60
2022-08-04T09:35:32.093Z,33.90
2022-08-04T09:38:18.333Z,34.20
2022-08-04T09:40:58.744Z,34.36
2022-08-04T09:43:58.895Z,34.56
2022-08-04T09:46:54.899Z,35.00
2022-08-04T09:49:33.316Z,35.34
2022-08-04T09:52:29.748Z,35.50
2022-08-04T09:55:16.202Z,35.70
2022-08-04T09:58:03.573Z,35.82
2022-08-04T10:00:52.539Z,36.02
2022-08-04T10:03:28.137Z,36.50
2022-08-04T10:06:15.778Z,36.82
2022-08-04T10:09:10.746Z,37.00
2022-08-04T10:12:02.772Z,37.30
2022-08-04T10:14:53.575Z,37.40
2022-08-04T10:17:49.121Z,37.60
2022-08-04T10:20:47.121Z,37.58
2022-08-04T10:23:56.634Z,37.60
2022-08-04T10:26:38.195Z,37.94
2022-08-04T10:29:19.726Z,38.34
2022-08-04T10:31:55.863Z,38.72
2022-08-04T10:34:38.195Z,39.16
2022-08-04T10:37:59.383Z,39.68
2022-08-04T10:40:45.625Z,40.32
2022-08-04T10:43:34.718Z,40.40
2022-08-04T10:46:14.667Z,40.18
2022-08-04T10:48:59.063Z,40.00
2022-08-04T10:51:58.544Z,40.36
2022-08-04T10:54:48.007Z,41.10
2022-08-04T10:57:31.297Z,41.50
2022-08-04T11:00:09.291Z,41.40
2022-08-04T11:02:53.935Z,41.80
2022-08-04T11:05:44.440Z,42.24
2022-08-04T11:08:23.459Z,42.20
2022-08-04T11:11:11.111Z,42.20
2022-08-04T11:13:51.346Z,42.62
2022-08-04T11:16:31.578Z,43.16
2022-08-04T11:19:19.081Z,43.78
2022-08-04T11:21:57.950Z,43.70
2022-08-04T11:24:42.259Z,43.86
2022-08-04T11:27:20.567Z,44.34
2022-08-04T11:29:59.134Z,44.72
2022-08-04T11:32:45.585Z,45.10
2022-08-04T11:35:32.611Z,45.02
2022-08-04T11:38:14.122Z,44.82
2022-08-04T11:41:02.349Z,44.80
2022-08-04T11:44:02.509Z,44.80
2022-08-04T11:46:44.306Z,45.00
2022-08-04T11:49:31.298Z,44.68
2022-08-04T11:52:25.670Z,44.80
2022-08-04T11:55:00.901Z,45.10
2022-08-04T11:57:36.372Z,44.60
2022-08-04T12:00:16.501Z,44.30
2022-08-04T12:03:33.621Z,44.18
2022-08-04T12:06:20.905Z,44.10
2022-08-04T12:09:10.313Z,44.38
2022-08-04T12:12:02.160Z,44.30
2022-08-04T12:14:48.954Z,44.60
2022-08-04T12:17:36.355Z,44.60
2022-08-04T12:20:40.625Z,44.94
2022-08-04T12:23:23.055Z,45.12
2022-08-04T12:26:01.599Z,45.30
2022-08-04T12:29:08.146Z,45.60
2022-08-04T12:31:41.798Z,45.64
2022-08-04T12:34:22.011Z,46.20
2022-08-04T12:37:03.505Z,46.30
2022-08-04T12:39:40.921Z,46.20
2022-08-04T12:42:38.448Z,46.40
2022-08-04T12:45:13.908Z,46.12
2022-08-04T12:47:48.845Z,46.22
2022-08-04T12:50:23.235Z,46.60
2022-08-04T12:53:02.188Z,47.00
2022-08-04T12:55:38.069Z,47.38
2022-08-04T12:58:43.117Z,47.28
2022-08-04T13:02:07.248Z,46.90
2022-08-04T13:04:21.178Z,46.84
2022-08-04T13:07:04.813Z,47.00
2022-08-04T13:09:41.631Z,47.58
2022-08-04T13:12:21.135Z,47.60
2022-08-04T13:15:08.940Z,48.10
2022-08-04T13:17:57.263Z,48.26
2022-08-04T13:20:35.922Z,48.40
2022-08-04T13:23:21.769Z,48.10
2022-08-04T13:26:45.195Z,48.10
2022-08-04T13:28:53.677Z,48.00
2022-08-04T13:31:35.850Z,48.46
2022-08-04T13:34:18.940Z,49.08
2022-08-04T13:36:56.409Z,48.92
2022-08-04T13:39:30.139Z,48.90
2022-08-04T13:42:10.154Z,48.80
2022-08-04T13:44:47.111Z,48.90
2022-08-04T13:47:24.783Z,48.70
2022-08-04T13:50:23.689Z,49.04
2022-08-04T13:53:00.011Z,49.22
2022-08-04T13:55:36.036Z,49.10
2022-08-04T13:58:15.675Z,49.10
2022-08-04T14:00:54.784Z,48.96
2022-08-04T14:03:54.199Z,48.36
2022-08-04T14:06:30.466Z,47.60
2022-08-04T14:09:13.399Z,47.38
2022-08-04T14:12:06.027Z,46.12
2022-08-04T14:14:48.600Z,44.88
2022-08-04T14:17:30.524Z,44.36
2022-08-04T14:20:05.284Z,44.08
2022-08-04T14:22:40.269Z,43.60
2022-08-04T14:25:17.102Z,43.38
2022-08-04T14:27:54.084Z,43.68
2022-08-04T14:30:31.615Z,44.00
2022-08-04T14:34:03.586Z,44.18
2022-08-04T14:36:04.314Z,44.50
2022-08-04T14:38:50.965Z,44.34
2022-08-04T14:41:27.137Z,43.40
2022-08-04T14:44:02.417Z,42.74
2022-08-04T14:46:50.263Z,42.00
2022-08-04T14:49:23.741Z,41.40
2022-08-04T14:52:00.333Z,41.74
2022-08-04T14:54:36.052Z,42.20
2022-08-04T14:57:10.770Z,42.00
2022-08-04T15:00:01.680Z,42.00
2022-08-04T15:02:38.911Z,42.00
2022-08-04T15:06:01.789Z,42.56
2022-08-04T15:08:06.007Z,43.66
2022-08-04T15:10:39.241Z,44.10
2022-08-04T15:13:14.558Z,44.10
2022-08-04T15:16:06.037Z,44.50
2022-08-04T15:18:41.992Z,44.60
2022-08-04T15:21:15.751Z,44.50
2022-08-04T15:23:49.695Z,44.18
2022-08-04T15:26:38.136Z,44.30
2022-08-04T15:29:17.333Z,44.30
2022-08-04T15:32:07.771Z,44.40
2022-08-04T15:34:55.159Z,44.70
2022-08-04T15:37:38.455Z,44.54
2022-08-04T15:40:15.817Z,44.50
2022-08-04T15:43:09.097Z,44.70
2022-08-04T15:46:37.366Z,44.74
2022-08-04T15:48:47.943Z,44.66
2022-08-04T15:51:31.876Z,44.60
2022-08-04T15:54:30.753Z,44.50
2022-08-04T15:57:07.396Z,44.56
2022-08-04T16:00:04.259Z,44.38
2022-08-04T16:02:47.199Z,44.30
2022-08-04T16:05:44.000Z,44.38
2022-08-04T16:08:21.028Z,44.10
2022-08-04T16:10:55.344Z,44.10
2022-08-04T16:13:28.814Z,43.90
2022-08-04T16:16:03.520Z,43.76
2022-08-04T16:18:45.293Z,43.60
2022-08-04T16:21:26.898Z,43.26
2022-08-04T16:24:22.059Z,42.96
2022-08-04T16:26:57.997Z,43.00
2022-08-04T16:29:39.608Z,42.60
2022-08-04T16:32:24.556Z,41.82
2022-08-04T16:35:05.035Z,40.58
2022-08-04T16:37:44.237Z,39.64
2022-08-04T16:40:41.282Z,38.54
2022-08-04T16:43:17.073Z,37.08
2022-08-04T16:46:01.712Z,36.14
2022-08-04T16:48:37.003Z,35.34
2022-08-04T16:51:13.247Z,34.70
2022-08-04T16:54:02.824Z,34.20
2022-08-04T16:56:38.785Z,33.80
2022-08-04T16:59:14.245Z,33.42
2022-08-04T17:01:54.416Z,33.10
2022-08-04T17:04:35.173Z,32.80
2022-08-04T17:07:09.268Z,32.62
2022-08-04T17:09:52.822Z,32.40
2022-08-04T17:12:31.431Z,32.22
2022-08-04T17:15:04.313Z,32.10
2022-08-04T17:18:05.661Z,31.90
2022-08-04T17:20:59.312Z,31.80
2022-08-04T17:24:13.009Z,31.60
2022-08-04T17:26:40.008Z,31.50
2022-08-04T17:29:19.881Z,31.36
2022-08-04T17:31:53.610Z,31.20
2022-08-04T17:34:26.979Z,31.10
2022-08-04T17:37:36.735Z,31.02
2022-08-04T17:40:10.773Z,30.90
2022-08-04T17:42:45.282Z,30.80
2022-08-04T17:48:25.203Z,30.60
2022-08-04T17:54:07.169Z,30.40
2022-08-04T17:56:52.053Z,30.22
2022-08-04T17:59:55.958Z,30.10
2022-08-04T18:02:31.966Z,30.00
2022-08-04T18:05:11.545Z,29.90
2022-08-04T18:08:37.602Z,29.80
2022-08-04T18:10:55.165Z,29.70
2022-08-04T18:13:42.306Z,29.60
2022-08-04T18:16:22.150Z,29.50
2022-08-04T18:19:13.401Z,29.40
2022-08-04T18:22:00.020Z,29.30
2022-08-04T18:24:56.362Z,29.20
2022-08-04T18:27:32.492Z,29.04
2022-08-04T18:30:32.548Z,28.92
2022-08-04T18:33:24.287Z,28.80
2022-08-04T18:36:33.870Z,28.70
2022-08-04T18:38:55.845Z,28.60
2022-08-04T18:42:01.029Z,28.50
2022-08-04T18:44:27.342Z,28.40
2022-08-04T18:47:22.330Z,28.30
2022-08-04T18:50:58.601Z,28.20
2022-08-04T18:52:48.512Z,28.10
2022-08-04T18:55:55.494Z,28.00
2022-08-04T18:58:27.609Z,27.92
2022-08-04T19:01:01.293Z,27.90
2022-08-04T19:03:34.422Z,27.80
2022-08-04T19:06:09.861Z,27.70
2022-08-04T19:08:45.231Z,27.70
2022-08-04T19:11:54.703Z,27.60
2022-08-04T19:14:13.138Z,27.50
2022-08-04T19:16:48.637Z,27.50
2022-08-04T19:19:22.066Z,27.40
2022-08-04T19:22:35.442Z,27.30
2022-08-04T19:25:09.059Z,27.20
2022-08-04T19:27:41.883Z,27.10
2022-08-04T19:30:17.480Z,27.10
2022-08-04T19:32:50.529Z,27.00
2022-08-04T19:35:23.248Z,26.94
2022-08-04T19:38:03.709Z,26.90
2022-08-04T19:40:37.879Z,26.80
2022-08-04T19:43:15.085Z,26.80
2022-08-04T19:45:48.567Z,26.70
2022-08-04T19:48:23.728Z,26.60
2022-08-04T19:50:58.734Z,26.54
2022-08-04T19:53:37.543Z,26.50
2022-08-04T19:56:11.963Z,26.40
2022-08-04T19:58:48.066Z,26.32
2022-08-04T20:01:33.333Z,26.30
2022-08-04T20:04:14.426Z,26.20
2022-08-04T20:06:47.450Z,26.20
2022-08-04T20:09:26.209Z,26.10
2022-08-04T20:12:01.140Z,26.00
2022-08-04T20:14:34.435Z,26.00
2022-08-04T20:17:09.859Z,25.92
2022-08-04T20:19:51.106Z,25.90
2022-08-04T20:22:50.779Z,25.90
2022-08-04T20:25:35.861Z,25.80
2022-08-04T20:28:25.803Z,25.80
2022-08-04T20:31:04.351Z,25.70
2022-08-04T20:33:37.317Z,25.70
2022-08-04T20:36:11.720Z,25.60
2022-08-04T20:38:48.769Z,25.60
2022-08-04T20:41:25.056Z,25.50
2022-08-04T20:44:11.236Z,25.50
2022-08-04T20:46:44.183Z,25.48
2022-08-04T20:49:17.388Z,25.40
2022-08-04T20:51:50.512Z,25.40
2022-08-04T20:54:26.751Z,25.40
2022-08-04T20:57:00.936Z,25.32
2022-08-04T20:59:34.651Z,25.30
2022-08-04T21:02:16.432Z,25.30
2022-08-04T21:04:49.536Z,25.30
2022-08-04T21:07:24.602Z,25.24
2022-08-04T21:09:57.966Z,25.20
2022-08-04T21:12:32.079Z,25.20
2022-08-04T21:15:14.149Z,25.20
2022-08-04T21:17:57.960Z,25.10
2022-08-04T21:20:42.391Z,25.10
2022-08-04T21:23:15.682Z,25.00
2022-08-04T21:25:56.123Z,25.00
2022-08-04T21:28:31.100Z,25.00
2022-08-04T21:31:11.034Z,24.90
2022-08-04T21:33:54.573Z,24.90
2022-08-04T21:36:27.677Z,24.80
2022-08-04T21:39:00.658Z,24.80
2022-08-04T21:41:44.570Z,24.70
2022-08-04T21:44:27.275Z,24.70
2022-08-04T21:47:00.477Z,24.60
2022-08-04T21:49:33.359Z,24.60
2022-08-04T21:52:10.565Z,24.50
2022-08-04T21:54:43.427Z,24.40
2022-08-04T21:57:17.741Z,24.40
2022-08-04T21:59:57.611Z,24.30
2022-08-04T22:02:33.055Z,24.24
2022-08-04T22:05:07.287Z,24.20
2022-08-04T22:07:49.794Z,24.10
2022-08-04T22:10:32.962Z,24.10
2022-08-04T22:13:07.905Z,24.00
2022-08-04T22:16:03.775Z,24.00
2022-08-04T22:18:36.708Z,23.90
2022-08-04T22:21:12.111Z,23.82
2022-08-04T22:23:47.059Z,23.80
2022-08-04T22:26:26.991Z,23.70
2022-08-04T22:29:00.744Z,23.68
2022-08-04T22:31:56.011Z,23.60
2022-08-04T22:34:30.393Z,23.50
2022-08-04T22:37:22.437Z,23.40
2022-08-04T22:39:57.220Z,23.40
2022-08-04T22:42:30.142Z,23.30
2022-08-04T22:45:05.254Z,23.30
2022-08-04T22:47:41.098Z,23.20
2022-08-04T22:50:27.385Z,23.20
2022-08-04T22:53:01.100Z,23.12
2022-08-04T22:56:07.050Z,23.10
2022-08-04T22:58:28.668Z,23.10
2022-08-04T23:01:01.850Z,23.10
2022-08-04T23:03:38.438Z,23.00
2022-08-04T23:06:13.401Z,23.00
2022-08-04T23:08:46.628Z,23.00
2022-08-04T23:11:21.682Z,23.00
2022-08-04T23:13:54.533Z,22.90
2022-08-04T23:16:28.559Z,22.90
2022-08-04T23:19:09.727Z,22.90
2022-08-04T23:21:47.462Z,22.86
2022-08-04T23:24:33.806Z,22.80
2022-08-04T23:27:07.207Z,22.80
2022-08-04T23:29:52.831Z,22.74
2022-08-04T23:32:27.523Z,22.70
2022-08-04T23:35:00.508Z,22.70
2022-08-04T23:37:35.314Z,22.66
2022-08-04T23:40:30.154Z,22.60
2022-08-04T23:43:17.110Z,22.60
2022-08-04T23:46:03.913Z,22.50
2022-08-04T23:48:39.789Z,22.50
2022-08-04T23:51:15.667Z,22.50
2022-08-04T23:54:02.281Z,22.40
2022-08-04T23:56:38.020Z,22.40
2022-08-04T23:59:17.911Z,22.40
